Time;durP1;ratioP1;P1;durP2;ratioP2;P2;SDS_P1;SDS_P2;PMS_P1;PMS_P2;Temp;Humidity;BMP_temperature;BMP_pressure;BME280_temperature;BME280_humidity;BME280_pressure;Samples;Min_cycle;Max_cycle;Signal;HPM_P1;HPM_P2
2022/06/17 00:00:15;;;;;;;2.60;2.40;;;;;;;;;;4973641;28;20035;-83
2022/06/17 00:02:41;;;;;;;4.15;2.50;;;;;;;;;;4974400;28;20030;-83
2022/06/17 00:05:07;;;;;;;4.10;2.35;;;;;;;;;;4974548;28;20045;-83
2022/06/17 00:07:33;;;;;;;3.40;2.53;;;;;;;;;;4974652;28;20031;-83
2022/06/17 00:09:58;;;;;;;2.67;2.33;;;;;;;;;;4956923;28;20026;-83
2022/06/17 00:12:24;;;;;;;2.42;2.13;;;;;;;;;;4974165;28;20117;-83
2022/06/17 00:17:33;;;;;;;;;;;;;;;;;;4973615;28;20078;-84
2022/06/17 00:19:59;;;;;;;2.80;2.53;;;;;;;;;;4974114;28;19914;-83
2022/06/17 00:22:25;;;;;;;2.70;2.42;;;;;;;;;;4974514;28;20387;-83
2022/06/17 00:24:52;;;;;;;2.50;2.30;;;;;;;;;;4974297;28;20031;-83
2022/06/17 00:27:18;;;;;;;2.97;2.35;;;;;;;;;;4974571;28;20026;-83
2022/06/17 00:29:43;;;;;;;4.43;2.40;;;;;;;;;;4974077;28;20043;-83
2022/06/17 00:32:09;;;;;;;2.33;2.13;;;;;;;;;;4974549;28;20073;-84
2022/06/17 00:34:34;;;;;;;2.67;2.30;;;;;;;;;;4974479;28;20027;-84
2022/06/17 00:37:02;;;;;;;2.40;2.20;;;;;;;;;;4956780;28;20054;-83
2022/06/17 00:39:31;;;;;;;3.88;2.47;;;;;;;;;;4972926;28;20030;-83
2022/06/17 00:42:03;;;;;;;2.53;2.15;;;;;;;;;;4973644;28;20031;-83
2022/06/17 00:44:42;;;;;;;2.28;2.13;;;;;;;;;;4975800;28;20376;-84
2022/06/17 00:47:34;;;;;;;2.83;2.53;;;;;;;;;;4976507;28;20089;-83
2022/06/17 00:50:22;;;;;;;2.80;2.50;;;;;;;;;;4976911;28;20022;-85
2022/06/17 00:53:05;;;;;;;3.33;2.53;;;;;;;;;;4977843;28;20023;-84
2022/06/17 00:55:44;;;;;;;2.83;2.28;;;;;;;;;;4960573;28;20029;-84
2022/06/17 00:58:23;;;;;;;4.75;2.45;;;;;;;;;;4959983;28;20460;-84
2022/06/17 01:00:52;;;;;;;5.15;3.28;;;;;;;;;;4976492;28;20027;-84
2022/06/17 01:03:22;;;;;;;2.40;2.20;;;;;;;;;;4976235;28;20043;-83
2022/06/17 01:06:11;;;;;;;9.48;2.20;;;;;;;;;;4976534;28;20027;-84
2022/06/17 01:11:29;;;;;;;2.95;2.17;;;;;;;;;;4976323;28;20081;-83
2022/06/17 01:13:55;;;;;;;4.32;2.33;;;;;;;;;;4960317;28;20035;-84
2022/06/17 01:16:25;;;;;;;3.53;2.35;;;;;;;;;;4976364;28;20038;-84
2022/06/17 01:18:51;;;;;;;3.65;2.33;;;;;;;;;;4975961;28;20045;-83
2022/06/17 01:21:36;;;;;;;3.60;2.33;;;;;;;;;;4959833;28;20062;-84
2022/06/17 01:24:02;;;;;;;2.80;2.33;;;;;;;;;;4976078;28;20521;-84
2022/06/17 01:26:27;;;;;;;2.60;2.40;;;;;;;;;;4943715;28;20035;-83
2022/06/17 01:28:53;;;;;;;3.13;2.50;;;;;;;;;;4977253;28;20080;-83
2022/06/17 01:31:18;;;;;;;3.10;2.25;;;;;;;;;;4959644;28;20126;-84
2022/06/17 01:33:44;;;;;;;2.58;2.33;;;;;;;;;;4959520;28;20479;-84
2022/06/17 01:36:22;;;;;;;2.67;2.38;;;;;;;;;;4975971;28;20031;-84
2022/06/17 01:38:50;;;;;;;3.67;2.45;;;;;;;;;;4975803;28;20506;-84
2022/06/17 01:41:17;;;;;;;3.17;2.60;;;;;;;;;;4975618;28;20038;-83
2022/06/17 01:43:47;;;;;;;3.00;2.70;;;;;;;;;;4976352;28;20031;-83
2022/06/17 01:46:16;;;;;;;2.60;2.30;;;;;;;;;;4975484;28;20058;-83
2022/06/17 01:48:46;;;;;;;2.50;2.20;;;;;;;;;;4959497;28;20026;-83
2022/06/17 01:51:14;;;;;;;2.60;2.40;;;;;;;;;;4976436;28;20030;-83
2022/06/17 01:53:42;;;;;;;3.60;2.65;;;;;;;;;;4959604;28;20121;-82
2022/06/17 01:56:12;;;;;;;3.65;2.50;;;;;;;;;;4959503;28;20030;-83
2022/06/17 01:58:41;;;;;;;2.90;2.60;;;;;;;;;;4975418;28;20442;-83
2022/06/17 02:01:07;;;;;;;2.83;2.45;;;;;;;;;;4960307;28;20022;-83
2022/06/17 02:03:48;;;;;;;2.42;2.15;;;;;;;;;;4975646;28;20054;-82
2022/06/17 02:06:34;;;;;;;5.47;2.75;;;;;;;;;;4976666;28;20026;-83
2022/06/17 02:09:00;;;;;;;4.38;2.42;;;;;;;;;;4975684;28;20022;-82
2022/06/17 02:11:26;;;;;;;2.80;2.30;;;;;;;;;;4959177;28;20031;-84
2022/06/17 02:13:51;;;;;;;3.38;2.30;;;;;;;;;;4958958;28;20122;-83
2022/06/17 02:16:17;;;;;;;3.55;2.78;;;;;;;;;;4976224;28;20443;-83
2022/06/17 02:18:44;;;;;;;4.72;2.40;;;;;;;;;;4976707;28;20035;-83
2022/06/17 02:21:17;;;;;;;5.10;2.53;;;;;;;;;;4974891;28;20157;-84
2022/06/17 02:23:44;;;;;;;2.60;2.35;;;;;;;;;;4974935;28;20027;-84
2022/06/17 02:26:10;;;;;;;3.00;2.40;;;;;;;;;;4974875;28;20030;-84
2022/06/17 02:28:35;;;;;;;3.75;2.47;;;;;;;;;;4974866;28;20106;-84
2022/06/17 02:31:01;;;;;;;4.22;2.35;;;;;;;;;;4976064;28;20106;-84
2022/06/17 02:33:27;;;;;;;2.53;2.25;;;;;;;;;;4958606;28;20058;-84
2022/06/17 02:36:01;;;;;;;2.67;2.47;;;;;;;;;;4975009;28;20030;-83
2022/06/17 02:38:30;;;;;;;2.92;2.38;;;;;;;;;;4974955;28;20027;-83
2022/06/17 02:41:05;;;;;;;2.97;2.28;;;;;;;;;;4958653;28;20549;-83
2022/06/17 02:43:33;;;;;;;2.47;2.28;;;;;;;;;;4975202;28;20034;-83
2022/06/17 02:46:02;;;;;;;2.67;2.38;;;;;;;;;;4974639;28;20031;-83
2022/06/17 02:48:31;;;;;;;3.53;2.90;;;;;;;;;;4974948;28;20042;-84
2022/06/17 02:50:58;;;;;;;3.05;2.53;;;;;;;;;;4958445;28;20027;-83
2022/06/17 02:53:29;;;;;;;2.33;2.10;;;;;;;;;;4958269;28;20038;-83
2022/06/17 02:55:55;;;;;;;3.13;2.35;;;;;;;;;;4959393;28;20033;-84
2022/06/17 02:58:42;;;;;;;2.97;2.63;;;;;;;;;;4974541;28;20042;-84
2022/06/17 03:01:27;;;;;;;3.75;2.50;;;;;;;;;;4975339;28;20125;-83
2022/06/17 03:03:54;;;;;;;2.88;2.40;;;;;;;;;;4974602;28;20042;-82
2022/06/17 03:06:26;;;;;;;2.55;2.35;;;;;;;;;;4974225;28;20062;-83
2022/06/17 03:08:52;;;;;;;4.30;2.65;;;;;;;;;;4974278;28;20078;-82
2022/06/17 03:11:19;;;;;;;2.95;2.65;;;;;;;;;;4974338;28;20031;-83
2022/06/17 03:13:50;;;;;;;3.50;2.45;;;;;;;;;;4975168;28;20479;-84
2022/06/17 03:16:16;;;;;;;9.27;2.58;;;;;;;;;;4973967;28;20490;-83
2022/06/17 03:18:43;;;;;;;2.55;2.35;;;;;;;;;;4974802;28;20023;-82
2022/06/17 03:21:08;;;;;;;2.90;2.60;;;;;;;;;;4973765;28;20054;-83
2022/06/17 03:24:11;;;;;;;2.70;2.50;;;;;;;;;;4974911;28;20037;-83
2022/06/17 03:26:41;;;;;;;2.70;2.50;;;;;;;;;;4971670;28;20510;-82
2022/06/17 03:29:08;;;;;;;2.53;2.33;;;;;;;;;;4974038;28;20059;-82
2022/06/17 03:31:46;;;;;;;3.67;2.75;;;;;;;;;;4957892;28;20035;-84
2022/06/17 03:34:19;;;;;;;2.60;2.38;;;;;;;;;;4973812;28;20030;-83
2022/06/17 03:36:54;;;;;;;2.65;2.30;;;;;;;;;;4973950;28;20502;-83
2022/06/17 03:39:31;;;;;;;3.10;2.58;;;;;;;;;;4973543;28;20039;-83
2022/06/17 03:41:58;;;;;;;2.50;2.30;;;;;;;;;;4973650;28;20472;-83
2022/06/17 03:44:28;;;;;;;2.55;2.35;;;;;;;;;;4973789;28;20030;-83
2022/06/17 03:46:57;;;;;;;2.92;2.40;;;;;;;;;;4973683;28;20474;-83
2022/06/17 03:49:37;;;;;;;2.40;2.20;;;;;;;;;;4973527;28;20061;-83
2022/06/17 03:52:11;;;;;;;3.20;2.58;;;;;;;;;;4973679;28;20033;-84
2022/06/17 03:54:36;;;;;;;3.38;2.42;;;;;;;;;;4973698;28;20026;-84
2022/06/17 03:57:08;;;;;;;4.32;2.35;;;;;;;;;;4974750;28;20038;-83
2022/06/17 03:59:35;;;;;;;3.35;2.40;;;;;;;;;;4957210;28;20031;-82
2022/06/17 04:02:06;;;;;;;3.08;2.60;;;;;;;;;;4957362;28;20027;-84
2022/06/17 04:04:39;;;;;;;3.03;2.60;;;;;;;;;;4973870;28;20030;-84
2022/06/17 04:07:04;;;;;;;2.58;2.35;;;;;;;;;;4974853;28;20027;-83
2022/06/17 04:09:32;;;;;;;2.90;2.60;;;;;;;;;;4957064;28;20428;-82
2022/06/17 04:12:06;;;;;;;4.40;2.75;;;;;;;;;;4957305;28;20479;-81
2022/06/17 04:15:01;;;;;;;4.47;2.70;;;;;;;;;;4973439;28;20039;-83
2022/06/17 04:17:40;;;;;;;5.00;2.80;;;;;;;;;;4960419;28;20459;-82
2022/06/17 04:20:43;;;;;;;5.65;3.00;;;;;;;;;;4976793;28;20035;-81
2022/06/17 04:23:18;;;;;;;7.57;3.25;;;;;;;;;;4976914;28;20035;-81
2022/06/17 04:25:51;;;;;;;7.85;3.40;;;;;;;;;;4960790;28;20026;-81
2022/06/17 04:28:19;;;;;;;4.82;3.33;;;;;;;;;;4976987;28;20038;-80
2022/06/17 04:30:47;;;;;;;7.15;3.40;;;;;;;;;;4976543;28;20026;-80
2022/06/17 04:33:23;;;;;;;8.52;2.80;;;;;;;;;;4976963;28;20053;-79
2022/06/17 04:36:18;;;;;;;4.18;2.88;;;;;;;;;;4977259;28;20023;-79
2022/06/17 04:38:50;;;;;;;4.38;2.38;;;;;;;;;;4977011;28;20034;-80
2022/06/17 04:41:18;;;;;;;3.42;2.17;;;;;;;;;;4960878;28;20034;-80
2022/06/17 04:43:47;;;;;;;5.57;2.70;;;;;;;;;;4977098;28;20181;-79
2022/06/17 04:46:16;;;;;;;5.85;2.60;;;;;;;;;;4976711;28;20073;-78
2022/06/17 04:48:42;;;;;;;5.82;2.97;;;;;;;;;;4977051;28;20554;-80
2022/06/17 04:51:09;;;;;;;4.47;3.30;;;;;;;;;;4976707;28;20110;-78
2022/06/17 04:53:38;;;;;;;6.95;3.38;;;;;;;;;;4976883;28;20034;-80
2022/06/17 04:56:05;;;;;;;4.50;3.00;;;;;;;;;;4976818;28;20479;-79
2022/06/17 04:58:30;;;;;;;6.65;2.80;;;;;;;;;;4976767;28;20519;-79
2022/06/17 05:00:56;;;;;;;4.53;2.85;;;;;;;;;;4976632;28;20082;-80
2022/06/17 05:03:29;;;;;;;5.10;2.95;;;;;;;;;;4960313;28;20030;-79
2022/06/17 05:05:55;;;;;;;4.50;2.80;;;;;;;;;;4960436;28;20030;-79
2022/06/17 05:08:36;;;;;;;4.68;2.72;;;;;;;;;;4976686;28;20387;-79
2022/06/17 05:11:07;;;;;;;4.82;3.05;;;;;;;;;;4977362;28;20042;-80
2022/06/17 05:13:51;;;;;;;3.47;2.63;;;;;;;;;;4979902;28;20440;-80
2022/06/17 05:16:17;;;;;;;3.60;2.45;;;;;;;;;;4979255;28;20019;-81
2022/06/17 05:18:42;;;;;;;4.78;2.83;;;;;;;;;;4962713;28;20042;-80
2022/06/17 05:21:16;;;;;;;5.18;2.88;;;;;;;;;;4977903;28;20051;-81
2022/06/17 05:23:42;;;;;;;6.50;3.30;;;;;;;;;;4978031;28;20026;-82
2022/06/17 05:26:07;;;;;;;6.10;2.92;;;;;;;;;;4980374;28;20038;-82
2022/06/17 05:28:33;;;;;;;5.63;2.97;;;;;;;;;;4979195;28;20039;-80
2022/06/17 05:31:00;;;;;;;5.53;3.13;;;;;;;;;;4979671;28;20122;-80
2022/06/17 05:33:25;;;;;;;7.50;3.38;;;;;;;;;;4962333;28;20022;-80
2022/06/17 05:35:51;;;;;;;6.22;3.05;;;;;;;;;;4978601;28;20022;-82
2022/06/17 05:38:16;;;;;;;4.47;2.78;;;;;;;;;;4978073;28;20034;-81
2022/06/17 05:40:43;;;;;;;5.78;2.60;;;;;;;;;;4977424;28;20449;-80
2022/06/17 05:43:09;;;;;;;10.18;2.90;;;;;;;;;;4979978;28;20026;-81
2022/06/17 05:45:35;;;;;;;6.03;2.55;;;;;;;;;;4978408;28;20027;-81
2022/06/17 05:48:00;;;;;;;5.13;2.90;;;;;;;;;;4977820;28;20471;-81
2022/06/17 05:50:28;;;;;;;4.05;2.75;;;;;;;;;;4978680;28;20042;-82
2022/06/17 05:52:59;;;;;;;4.30;2.35;;;;;;;;;;4960966;28;20095;-82
2022/06/17 05:55:28;;;;;;;5.70;2.60;;;;;;;;;;4960802;28;20479;-82
2022/06/17 05:57:53;;;;;;;5.10;3.03;;;;;;;;;;4975982;28;20102;-81
2022/06/17 06:00:20;;;;;;;7.70;2.72;;;;;;;;;;4959587;28;20118;-81
2022/06/17 06:02:45;;;;;;;5.95;2.83;;;;;;;;;;4976815;28;20442;-81
2022/06/17 06:05:18;;;;;;;6.88;2.72;;;;;;;;;;4976960;28;20039;-81
2022/06/17 06:07:43;;;;;;;4.57;2.90;;;;;;;;;;4976810;28;20014;-81
2022/06/17 06:10:09;;;;;;;4.95;2.60;;;;;;;;;;4977531;28;20042;-80
2022/06/17 06:12:53;;;;;;;5.28;2.78;;;;;;;;;;4978012;28;20077;-81
2022/06/17 06:15:19;;;;;;;;;;;;;;;;;;4964054;28;20494;-80
2022/06/17 06:17:45;;;;;;;7.13;3.10;;;;;;;;;;4979679;28;19925;-82
2022/06/17 06:20:12;;;;;;;3.28;2.35;;;;;;;;;;4982496;28;20027;-82
2022/06/17 06:22:37;;;;;;;5.55;2.47;;;;;;;;;;4977877;28;20062;-81
2022/06/17 06:25:02;;;;;;;3.78;2.30;;;;;;;;;;4978739;28;20356;-82
2022/06/17 06:27:28;;;;;;;3.50;2.40;;;;;;;;;;4978026;28;20023;-81
2022/06/17 06:29:53;;;;;;;3.88;2.30;;;;;;;;;;4975757;28;20031;-82
2022/06/17 06:32:18;;;;;;;5.00;2.42;;;;;;;;;;4976769;28;20030;-82
2022/06/17 06:34:44;;;;;;;4.68;2.38;;;;;;;;;;4975062;28;20094;-81
2022/06/17 06:37:09;;;;;;;3.67;2.30;;;;;;;;;;4975110;28;20042;-82
2022/06/17 06:39:35;;;;;;;3.13;2.40;;;;;;;;;;4974727;28;20399;-82
2022/06/17 06:42:00;;;;;;;3.33;2.25;;;;;;;;;;4974432;28;20041;-82
2022/06/17 06:44:26;;;;;;;4.05;2.42;;;;;;;;;;4976115;28;20484;-82
2022/06/17 06:46:52;;;;;;;3.00;2.35;;;;;;;;;;4974660;28;20035;-81
2022/06/17 06:49:17;;;;;;;5.13;2.50;;;;;;;;;;4975177;28;20486;-80
2022/06/17 06:51:42;;;;;;;3.92;2.28;;;;;;;;;;4976179;28;20030;-82
2022/06/17 06:54:08;;;;;;;3.10;2.25;;;;;;;;;;4974741;28;20546;-82
2022/06/17 06:56:33;;;;;;;3.25;2.25;;;;;;;;;;4958333;28;20402;-81
2022/06/17 06:58:59;;;;;;;4.15;2.00;;;;;;;;;;4976026;28;20034;-79
2022/06/17 07:01:24;;;;;;;3.50;2.00;;;;;;;;;;4976015;28;20030;-81
2022/06/17 07:03:49;;;;;;;3.45;2.33;;;;;;;;;;4975484;28;20042;-80
2022/06/17 07:06:15;;;;;;;7.30;1.83;;;;;;;;;;4975750;28;20037;-80
2022/06/17 07:08:40;;;;;;;2.05;1.73;;;;;;;;;;4974266;28;20361;-80
2022/06/17 07:11:07;;;;;;;2.85;1.67;;;;;;;;;;4942259;28;20068;-80
2022/06/17 07:13:33;;;;;;;4.28;1.83;;;;;;;;;;4974333;28;20023;-80
2022/06/17 07:15:59;;;;;;;2.15;1.80;;;;;;;;;;4975234;28;20030;-80
2022/06/17 07:18:33;;;;;;;4.78;2.03;;;;;;;;;;4975591;28;20472;-80
2022/06/17 07:21:02;;;;;;;7.05;2.40;;;;;;;;;;4973962;28;20156;-79
2022/06/17 07:23:30;;;;;;;4.22;1.70;;;;;;;;;;4974354;28;20487;-80
2022/06/17 07:25:57;;;;;;;4.22;1.60;;;;;;;;;;4974016;28;20027;-80
2022/06/17 07:28:25;;;;;;;2.53;1.70;;;;;;;;;;4974448;28;20023;-80
2022/06/17 07:30:51;;;;;;;3.05;1.70;;;;;;;;;;4957856;28;20061;-80
2022/06/17 07:33:18;;;;;;;2.20;1.67;;;;;;;;;;4974004;28;20031;-79
2022/06/17 07:35:45;;;;;;;4.65;1.85;;;;;;;;;;4974966;28;20027;-79
2022/06/17 07:40:57;;;;;;;2.42;1.67;;;;;;;;;;4975089;28;20498;-81
2022/06/17 07:43:22;;;;;;;4.50;1.80;;;;;;;;;;4974829;28;20113;-80
2022/06/17 07:45:48;;;;;;;3.60;1.58;;;;;;;;;;4974952;28;20038;-80
2022/06/17 07:48:14;;;;;;;4.70;1.80;;;;;;;;;;4973872;28;20037;-80
2022/06/17 07:50:41;;;;;;;4.90;1.60;;;;;;;;;;4974988;28;20039;-80
2022/06/17 07:53:07;;;;;;;1.92;1.65;;;;;;;;;;4972917;28;20030;-80
2022/06/17 07:55:33;;;;;;;2.88;1.70;;;;;;;;;;4973533;28;20027;-80
2022/06/17 07:57:59;;;;;;;4.05;1.52;;;;;;;;;;4973451;28;20471;-80
2022/06/17 08:00:35;;;;;;;3.35;1.67;;;;;;;;;;4974931;28;20031;-80
2022/06/17 08:03:01;;;;;;;3.33;1.58;;;;;;;;;;4957383;28;20035;-81
2022/06/17 08:05:27;;;;;;;2.90;1.70;;;;;;;;;;4957172;28;20026;-80
2022/06/17 08:07:53;;;;;;;3.63;1.70;;;;;;;;;;4957345;28;20138;-80
2022/06/17 08:10:22;;;;;;;2.40;1.52;;;;;;;;;;4973487;28;20495;-81
2022/06/17 08:12:47;;;;;;;3.60;1.80;;;;;;;;;;4957264;28;20027;-80
2022/06/17 08:15:13;;;;;;;3.15;2.00;;;;;;;;;;4974600;28;20594;-80
2022/06/17 08:17:42;;;;;;;2.25;1.70;;;;;;;;;;4974609;28;20031;-81
2022/06/17 08:20:17;;;;;;;1.70;1.60;;;;;;;;;;4973417;28;20085;-80
2022/06/17 08:22:42;;;;;;;2.00;1.70;;;;;;;;;;4973255;28;20125;-81
2022/06/17 08:25:08;;;;;;;3.97;1.50;;;;;;;;;;4974471;28;20113;-80
2022/06/17 08:27:44;;;;;;;1.70;1.60;;;;;;;;;;4974352;28;20059;-81
2022/06/17 08:30:10;;;;;;;2.88;1.60;;;;;;;;;;4973823;28;20426;-80
2022/06/17 08:32:45;;;;;;;3.55;1.80;;;;;;;;;;4974651;28;20047;-80
2022/06/17 08:35:11;;;;;;;2.25;1.80;;;;;;;;;;4973240;28;20042;-80
2022/06/17 08:37:36;;;;;;;2.13;1.60;;;;;;;;;;4941036;28;20034;-80
2022/06/17 08:40:16;;;;;;;3.97;1.60;;;;;;;;;;4973158;28;20035;-80
2022/06/17 08:43:12;;;;;;;2.05;1.45;;;;;;;;;;4974489;28;20027;-80
2022/06/17 08:45:49;;;;;;;2.13;1.55;;;;;;;;;;4966135;28;20050;-80
2022/06/17 08:48:34;;;;;;;1.60;1.50;;;;;;;;;;4973015;28;20030;-80
2022/06/17 08:51:18;;;;;;;1.85;1.45;;;;;;;;;;4973104;28;20031;-80
2022/06/17 08:54:06;;;;;;;1.92;1.42;;;;;;;;;;4973001;28;20033;-80
2022/06/17 08:56:53;;;;;;;2.10;1.60;;;;;;;;;;4974363;28;20491;-80
2022/06/17 08:59:38;;;;;;;2.65;1.45;;;;;;;;;;4973221;28;20383;-80
2022/06/17 09:02:26;;;;;;;2.55;1.55;;;;;;;;;;4974422;28;20027;-81
2022/06/17 09:05:03;;;;;;;2.38;1.60;;;;;;;;;;4946467;28;20042;-80
2022/06/17 09:08:02;;;;;;;1.95;1.75;;;;;;;;;;4977651;28;20097;-80
2022/06/17 09:10:27;;;;;;;2.45;1.50;;;;;;;;;;4977192;28;20081;-81
2022/06/17 09:12:58;;;;;;;3.25;1.55;;;;;;;;;;4976230;28;20123;-81
2022/06/17 09:15:33;;;;;;;2.95;1.52;;;;;;;;;;4977366;28;20101;-80
2022/06/17 09:18:13;;;;;;;1.48;1.20;;;;;;;;;;4959977;28;20151;-81
2022/06/17 09:20:41;;;;;;;2.90;1.60;;;;;;;;;;4977138;28;20047;-80
2022/06/17 09:23:09;;;;;;;1.95;1.42;;;;;;;;;;4977236;28;20041;-80
2022/06/17 09:25:38;;;;;;;1.52;1.20;;;;;;;;;;4959905;28;20475;-81
2022/06/17 09:28:08;;;;;;;2.97;1.70;;;;;;;;;;4976510;28;20443;-80
2022/06/17 09:30:39;;;;;;;1.92;1.42;;;;;;;;;;4976050;28;20045;-80
2022/06/17 09:33:21;;;;;;;1.85;1.48;;;;;;;;;;4959708;28;20109;-80
2022/06/17 09:35:52;;;;;;;1.85;1.30;;;;;;;;;;4976208;28;20035;-80
2022/06/17 09:38:35;;;;;;;2.17;1.40;;;;;;;;;;4959607;28;20031;-80
2022/06/17 09:41:16;;;;;;;1.40;1.30;;;;;;;;;;4976167;28;20500;-80
2022/06/17 09:43:52;;;;;;;1.45;1.35;;;;;;;;;;4977163;28;20513;-80
2022/06/17 09:46:25;;;;;;;1.40;1.30;;;;;;;;;;4975989;28;20391;-80
2022/06/17 09:48:53;;;;;;;2.43;1.30;;;;;;;;;;4975718;28;20023;-79
2022/06/17 09:51:31;;;;;;;3.03;1.50;;;;;;;;;;4975714;28;20257;-81
2022/06/17 09:54:02;;;;;;;2.08;1.52;;;;;;;;;;4976373;28;20030;-79
2022/06/17 09:56:32;;;;;;;1.45;1.33;;;;;;;;;;4975908;28;20118;-80
2022/06/17 09:59:05;;;;;;;2.30;1.50;;;;;;;;;;4975589;28;20503;-81
2022/06/17 10:01:31;;;;;;;;;;;;;;;;;;4976607;28;20035;-82
2022/06/17 10:03:57;;;;;;;5.57;1.90;;;;;;;;;;4976376;28;19921;-82
2022/06/17 10:06:43;;;;;;;6.95;2.13;;;;;;;;;;4975677;28;20273;-81
2022/06/17 10:09:35;;;;;;;2.80;1.83;;;;;;;;;;4976511;28;20476;-81
2022/06/17 10:12:08;;;;;;;3.92;2.13;;;;;;;;;;4954329;28;20042;-81
2022/06/17 10:14:51;;;;;;;2.88;1.80;;;;;;;;;;4976617;28;20097;-82
2022/06/17 10:20:45;;;;;;;6.70;2.45;;;;;;;;;;4976434;28;20038;-81
2022/06/17 10:23:34;;;;;;;3.42;1.83;;;;;;;;;;4918442;29;20044;-83
2022/06/17 10:26:03;;;;;;;2.45;1.60;;;;;;;;;;4904168;29;20028;-80
2022/06/17 10:28:47;;;;;;;3.40;1.80;;;;;;;;;;4919439;29;20036;-82
2022/06/17 10:31:27;;;;;;;2.35;1.70;;;;;;;;;;4918885;29;20111;-81
2022/06/17 10:33:54;;;;;;;3.00;1.92;;;;;;;;;;4918904;29;20152;-81
2022/06/17 10:36:19;;;;;;;1.65;1.52;;;;;;;;;;4919421;29;20397;-82
2022/06/17 10:38:47;;;;;;;5.43;1.80;;;;;;;;;;4918848;29;20036;-81
2022/06/17 10:41:14;;;;;;;5.25;2.08;;;;;;;;;;4902409;29;20496;-83
2022/06/17 10:43:42;;;;;;;4.45;1.77;;;;;;;;;;4902693;29;20035;-81
2022/06/17 10:46:14;;;;;;;2.97;2.08;;;;;;;;;;4885618;29;20122;-83
2022/06/17 10:48:46;;;;;;;2.95;1.80;;;;;;;;;;4901124;29;20036;-82
2022/06/17 10:51:11;;;;;;;2.83;1.85;;;;;;;;;;4885246;29;20050;-82
2022/06/17 10:53:56;;;;;;;3.92;1.75;;;;;;;;;;4898599;29;20563;-82
2022/06/17 10:56:25;;;;;;;1.85;1.70;;;;;;;;;;4937266;29;20037;-82
2022/06/17 10:59:11;;;;;;;1.75;1.50;;;;;;;;;;4938302;29;20024;-81
2022/06/17 11:01:45;;;;;;;3.42;1.65;;;;;;;;;;4936341;29;20058;-82
2022/06/17 11:04:20;;;;;;;4.65;1.92;;;;;;;;;;4937382;29;20054;-82
2022/06/17 11:07:08;;;;;;;2.92;1.73;;;;;;;;;;4937365;29;20107;-83
2022/06/17 11:09:46;;;;;;;1.92;1.50;;;;;;;;;;4932536;29;20043;-83
2022/06/17 11:12:19;;;;;;;3.22;2.08;;;;;;;;;;4920342;29;20062;-83
2022/06/17 11:14:45;;;;;;;;;;;;;;;;;;4936553;29;20031;-82
2022/06/17 11:17:32;;;;;;;2.47;1.70;;;;;;;;;;4936806;29;19934;-83
2022/06/17 11:20:03;;;;;;;2.60;1.70;;;;;;;;;;4935505;29;20063;-82
2022/06/17 11:22:30;;;;;;;1.77;1.60;;;;;;;;;;4955491;28;20054;-83
2022/06/17 11:24:58;;;;;;;4.30;2.03;;;;;;;;;;4957503;28;20027;-82
2022/06/17 11:27:39;;;;;;;3.40;1.63;;;;;;;;;;4956922;28;20121;-82
2022/06/17 11:30:21;;;;;;;1.58;1.48;;;;;;;;;;4956878;28;20026;-82
2022/06/17 11:32:47;;;;;;;1.85;1.60;;;;;;;;;;4973003;28;20035;-82
2022/06/17 11:35:19;;;;;;;4.32;1.70;;;;;;;;;;4972905;28;20040;-82
2022/06/17 11:37:46;;;;;;;3.10;1.50;;;;;;;;;;4974211;28;20031;-82
2022/06/17 11:40:21;;;;;;;4.28;1.60;;;;;;;;;;4957038;28;20070;-82
2022/06/17 11:42:58;;;;;;;2.60;1.70;;;;;;;;;;4973026;28;20022;-80
2022/06/17 11:45:29;;;;;;;2.53;1.70;;;;;;;;;;4972913;28;20022;-81
2022/06/17 11:47:59;;;;;;;2.88;1.33;;;;;;;;;;4974109;28;20073;-82
2022/06/17 11:50:31;;;;;;;2.85;1.60;;;;;;;;;;4972825;28;20054;-82
2022/06/17 11:53:24;;;;;;;2.40;1.60;;;;;;;;;;4956805;28;20030;-80
2022/06/17 11:55:50;;;;;;;2.38;1.60;;;;;;;;;;4971467;28;20071;-80
2022/06/17 11:58:17;;;;;;;1.83;1.60;;;;;;;;;;4973828;28;20031;-81
2022/06/17 12:00:52;;;;;;;2.67;1.40;;;;;;;;;;4972639;28;20040;-79
2022/06/17 12:03:37;;;;;;;2.40;1.60;;;;;;;;;;4972753;28;20101;-80
2022/06/17 12:06:08;;;;;;;1.67;1.52;;;;;;;;;;4973576;28;20089;-80
2022/06/17 12:08:42;;;;;;;2.83;1.60;;;;;;;;;;4972806;28;20042;-80
2022/06/17 12:11:12;;;;;;;1.83;1.60;;;;;;;;;;4972831;28;20093;-81
2022/06/17 12:13:38;;;;;;;3.75;1.45;;;;;;;;;;4974266;28;20023;-80
2022/06/17 12:16:31;;;;;;;5.43;1.98;;;;;;;;;;4957549;28;20117;-80
2022/06/17 12:18:58;;;;;;;2.47;1.52;;;;;;;;;;4973310;28;20101;-81
2022/06/17 12:21:43;;;;;;;2.00;1.50;;;;;;;;;;4973978;28;20085;-80
2022/06/17 12:24:23;;;;;;;4.80;1.95;;;;;;;;;;4956701;28;20097;-80
2022/06/17 12:27:07;;;;;;;1.60;1.50;;;;;;;;;;4972677;28;20046;-81
2022/06/17 12:29:43;;;;;;;2.60;1.60;;;;;;;;;;4973745;28;20495;-81
2022/06/17 12:32:14;;;;;;;3.53;1.70;;;;;;;;;;4974020;28;20030;-82
2022/06/17 12:34:58;;;;;;;5.57;1.80;;;;;;;;;;4972502;28;20129;-82
2022/06/17 12:37:36;;;;;;;2.17;1.60;;;;;;;;;;4972596;28;20027;-82
2022/06/17 12:40:21;;;;;;;1.65;1.48;;;;;;;;;;4974528;28;20034;-81
2022/06/17 12:43:05;;;;;;;1.85;1.50;;;;;;;;;;4961134;28;20034;-81
2022/06/17 12:45:39;;;;;;;2.25;1.42;;;;;;;;;;4978210;28;20029;-81
2022/06/17 12:48:32;;;;;;;3.33;1.70;;;;;;;;;;4977212;28;20101;-81
2022/06/17 12:54:19;;;;;;;4.38;1.50;;;;;;;;;;4978215;28;20078;-81
2022/06/17 12:57:03;;;;;;;6.88;1.70;;;;;;;;;;4976728;28;20023;-80
2022/06/17 12:59:41;;;;;;;1.95;1.40;;;;;;;;;;4978139;28;20069;-80
2022/06/17 13:02:43;;;;;;;2.03;1.50;;;;;;;;;;4976538;28;20113;-80
2022/06/17 13:05:22;;;;;;;2.28;1.50;;;;;;;;;;4977087;28;20041;-80
2022/06/17 13:08:20;;;;;;;5.35;1.80;;;;;;;;;;4976478;28;20022;-80
2022/06/17 13:10:57;;;;;;;1.75;1.48;;;;;;;;;;4977935;28;20034;-81
2022/06/17 13:13:31;;;;;;;1.98;1.75;;;;;;;;;;4976322;28;20134;-81
2022/06/17 13:16:02;;;;;;;2.90;1.63;;;;;;;;;;4976251;28;20436;-82
2022/06/17 13:18:49;;;;;;;3.35;1.67;;;;;;;;;;4976489;28;20074;-82
2022/06/17 13:21:14;;;;;;;1.92;1.65;;;;;;;;;;4977295;28;20050;-80
2022/06/17 13:24:04;;;;;;;2.05;1.50;;;;;;;;;;4976141;28;20447;-79
2022/06/17 13:26:37;;;;;;;1.77;1.52;;;;;;;;;;4977436;28;20089;-80
2022/06/17 13:29:12;;;;;;;2.22;1.58;;;;;;;;;;4976079;28;20015;-79
2022/06/17 13:31:49;;;;;;;2.28;1.70;;;;;;;;;;4977559;28;20026;-79
2022/06/17 13:34:32;;;;;;;2.40;1.65;;;;;;;;;;4975993;28;20526;-78
2022/06/17 13:37:19;;;;;;;2.25;1.52;;;;;;;;;;4977180;28;20037;-79
2022/06/17 13:40:05;;;;;;;3.25;1.90;;;;;;;;;;4991913;28;20066;-79
2022/06/17 13:42:32;;;;;;;2.25;1.40;;;;;;;;;;4976138;28;20483;-78
2022/06/17 13:45:19;;;;;;;2.22;1.60;;;;;;;;;;4975683;28;20042;-78
2022/06/17 13:48:03;;;;;;;2.50;1.55;;;;;;;;;;4977228;28;20030;-79
2022/06/17 13:50:50;;;;;;;1.80;1.70;;;;;;;;;;4975707;28;20151;-78
2022/06/17 13:53:41;;;;;;;2.45;1.60;;;;;;;;;;4976699;28;20027;-78
2022/06/17 13:56:29;;;;;;;3.00;1.70;;;;;;;;;;4975556;28;20018;-78
2022/06/17 13:59:00;;;;;;;1.80;1.40;;;;;;;;;;4959257;28;20122;-78
2022/06/17 14:01:25;;;;;;;2.70;1.75;;;;;;;;;;4975549;28;20058;-78
2022/06/17 14:03:53;;;;;;;1.65;1.50;;;;;;;;;;4976866;28;20135;-79
2022/06/17 14:06:26;;;;;;;1.60;1.50;;;;;;;;;;4976924;28;20058;-79
2022/06/17 14:09:06;;;;;;;2.08;1.50;;;;;;;;;;4975540;28;20027;-79
2022/06/17 14:11:42;;;;;;;1.98;1.35;;;;;;;;;;4975789;28;20030;-79
2022/06/17 14:14:17;;;;;;;1.70;1.50;;;;;;;;;;4976412;28;20031;-79
2022/06/17 14:16:42;;;;;;;1.75;1.50;;;;;;;;;;4976998;28;20046;-80
2022/06/17 14:19:15;;;;;;;2.72;1.33;;;;;;;;;;4978014;28;20031;-79
2022/06/17 14:21:46;;;;;;;2.90;1.25;;;;;;;;;;4959317;28;20472;-79
2022/06/17 14:24:14;;;;;;;1.92;1.25;;;;;;;;;;4976729;28;20396;-80
2022/06/17 14:26:39;;;;;;;2.25;1.42;;;;;;;;;;4977016;28;20027;-79
2022/06/17 14:29:26;;;;;;;2.42;1.40;;;;;;;;;;4976108;28;20501;-79
2022/06/17 14:31:57;;;;;;;2.95;1.30;;;;;;;;;;4977144;28;20086;-79
2022/06/17 14:34:26;;;;;;;1.40;1.30;;;;;;;;;;4977019;28;20490;-78
2022/06/17 14:37:23;;;;;;;1.38;1.27;;;;;;;;;;4978474;28;20026;-81
2022/06/17 14:39:52;;;;;;;2.25;1.20;;;;;;;;;;4950820;28;20093;-79
2022/06/17 14:42:18;;;;;;;4.05;1.20;;;;;;;;;;4961342;28;20065;-80
2022/06/17 14:45:10;;;;;;;1.40;1.30;;;;;;;;;;4977921;28;20027;-80
2022/06/17 14:47:45;;;;;;;1.65;1.27;;;;;;;;;;4976443;28;20672;-80
2022/06/17 14:50:14;;;;;;;2.33;1.20;;;;;;;;;;4977247;28;20086;-80
2022/06/17 14:52:46;;;;;;;1.95;1.23;;;;;;;;;;4976209;28;20026;-80
2022/06/17 14:55:22;;;;;;;1.38;1.27;;;;;;;;;;4978373;28;20399;-79
2022/06/17 14:58:10;;;;;;;1.48;1.30;;;;;;;;;;4961398;28;20113;-80
2022/06/17 15:00:41;;;;;;;3.63;1.35;;;;;;;;;;4960244;28;20026;-80
2022/06/17 15:03:34;;;;;;;1.40;1.30;;;;;;;;;;4977585;28;20034;-81
2022/06/17 15:06:00;;;;;;;5.45;1.40;;;;;;;;;;4974447;28;20039;-80
2022/06/17 15:08:41;;;;;;;4.80;1.63;;;;;;;;;;4960314;28;20095;-79
2022/06/17 15:11:18;;;;;;;3.85;1.60;;;;;;;;;;4976418;28;20027;-79
2022/06/17 15:14:08;;;;;;;2.38;1.30;;;;;;;;;;4974416;28;20475;-79
2022/06/17 15:16:48;;;;;;;1.75;1.40;;;;;;;;;;4974411;28;20125;-79
2022/06/17 15:19:21;;;;;;;2.13;1.50;;;;;;;;;;4974253;28;20029;-78
2022/06/17 15:21:55;;;;;;;4.43;2.22;;;;;;;;;;4975139;28;20122;-79
2022/06/17 15:24:33;;;;;;;2.72;1.60;;;;;;;;;;4957952;28;20042;-78
2022/06/17 15:27:10;;;;;;;3.15;1.48;;;;;;;;;;4974134;28;20027;-78
2022/06/17 15:29:36;;;;;;;3.65;1.35;;;;;;;;;;4975521;28;20022;-79